sensor_id;sensor_type;location;lat;lon;timestamp;pressure;altitude;pressure_sealevel;temperature;humidity
65329;BME280;51941;52.210;5.158;2023-05-20T00:01:31;102531.44;;;11.87;100.00
65329;BME280;51941;52.210;5.158;2023-05-20T00:03:58;102527.53;;;11.82;100.00
65329;BME280;51941;52.210;5.158;2023-05-20T00:06:25;102525.28;;;11.79;100.00
65329;BME280;51941;52.210;5.158;2023-05-20T00:08:53;102523.84;;;11.77;100.00
65329;BME280;51941;52.210;5.158;2023-05-20T00:11:20;102526.03;;;11.67;100.00
65329;BME280;51941;52.210;5.158;2023-05-20T00:13:47;102530.75;;;11.71;100.00
65329;BME280;51941;52.210;5.158;2023-05-20T00:16:13;102525.22;;;11.66;100.00
65329;BME280;51941;52.210;5.158;2023-05-20T00:18:40;102525.00;;;11.68;100.00
65329;BME280;51941;52.210;5.158;2023-05-20T00:21:07;102530.53;;;11.66;100.00
65329;BME280;51941;52.210;5.158;2023-05-20T00:23:34;102525.41;;;11.65;100.00
65329;BME280;51941;52.210;5.158;2023-05-20T00:26:03;102528.25;;;11.63;100.00
65329;BME280;51941;52.210;5.158;2023-05-20T00:28:29;102523.13;;;11.55;100.00
65329;BME280;51941;52.210;5.158;2023-05-20T00:30:56;102523.75;;;11.57;100.00
65329;BME280;51941;52.210;5.158;2023-05-20T00:33:23;102525.78;;;11.55;100.00
65329;BME280;51941;52.210;5.158;2023-05-20T00:35:50;102533.72;;;11.55;100.00
65329;BME280;51941;52.210;5.158;2023-05-20T00:38:16;102518.59;;;11.49;100.00
65329;BME280;51941;52.210;5.158;2023-05-20T00:40:43;102528.19;;;11.50;100.00
65329;BME280;51941;52.210;5.158;2023-05-20T00:43:11;102523.88;;;11.49;100.00
65329;BME280;51941;52.210;5.158;2023-05-20T00:45:38;102525.31;;;11.45;100.00
65329;BME280;51941;52.210;5.158;2023-05-20T00:48:06;102526.50;;;11.42;100.00
65329;BME280;51941;52.210;5.158;2023-05-20T00:50:34;102519.72;;;11.33;100.00
65329;BME280;51941;52.210;5.158;2023-05-20T00:53:00;102517.50;;;11.37;100.00
65329;BME280;51941;52.210;5.158;2023-05-20T00:55:27;102523.19;;;11.34;100.00
65329;BME280;51941;52.210;5.158;2023-05-20T00:57:54;102511.75;;;11.33;100.00
65329;BME280;51941;52.210;5.158;2023-05-20T01:00:23;102504.41;;;11.29;100.00
65329;BME280;51941;52.210;5.158;2023-05-20T01:02:50;102497.66;;;11.26;100.00
65329;BME280;51941;52.210;5.158;2023-05-20T01:05:17;102504.16;;;11.24;100.00
65329;BME280;51941;52.210;5.158;2023-05-20T01:07:43;102495.34;;;11.17;100.00
65329;BME280;51941;52.210;5.158;2023-05-20T01:10:10;102494.53;;;11.16;100.00
65329;BME280;51941;52.210;5.158;2023-05-20T01:12:39;102497.78;;;11.12;100.00
65329;BME280;51941;52.210;5.158;2023-05-20T01:15:09;102493.47;;;11.11;100.00
65329;BME280;51941;52.210;5.158;2023-05-20T01:17:39;102501.81;;;11.07;100.00
65329;BME280;51941;52.210;5.158;2023-05-20T01:20:12;102495.66;;;11.00;100.00
65329;BME280;51941;52.210;5.158;2023-05-20T01:22:48;102495.41;;;10.95;100.00
65329;BME280;51941;52.210;5.158;2023-05-20T01:25:15;102496.03;;;10.97;100.00
65329;BME280;51941;52.210;5.158;2023-05-20T01:27:45;102496.97;;;10.90;100.00
65329;BME280;51941;52.210;5.158;2023-05-20T01:30:13;102490.31;;;10.94;100.00
65329;BME280;51941;52.210;5.158;2023-05-20T01:32:43;102498.63;;;10.91;100.00
65329;BME280;51941;52.210;5.158;2023-05-20T01:35:12;102484.56;;;10.90;100.00
65329;BME280;51941;52.210;5.158;2023-05-20T01:37:42;102483.56;;;10.91;100.00
65329;BME280;51941;52.210;5.158;2023-05-20T01:40:14;102473.78;;;10.92;100.00
65329;BME280;51941;52.210;5.158;2023-05-20T01:42:42;102469.47;;;10.91;100.00
65329;BME280;51941;52.210;5.158;2023-05-20T01:45:10;102474.97;;;10.89;100.00
65329;BME280;51941;52.210;5.158;2023-05-20T01:47:37;102470.69;;;10.88;100.00
65329;BME280;51941;52.210;5.158;2023-05-20T01:50:05;102472.72;;;10.86;100.00
65329;BME280;51941;52.210;5.158;2023-05-20T01:52:33;102479.84;;;10.86;100.00
65329;BME280;51941;52.210;5.158;2023-05-20T01:55:01;102474.75;;;10.84;100.00
65329;BME280;51941;52.210;5.158;2023-05-20T01:57:29;102470.44;;;10.83;100.00
65329;BME280;51941;52.210;5.158;2023-05-20T01:59:56;102471.47;;;10.82;100.00
65329;BME280;51941;52.210;5.158;2023-05-20T02:02:23;102463.88;;;10.79;100.00
65329;BME280;51941;52.210;5.158;2023-05-20T02:04:53;102467.75;;;10.77;100.00
65329;BME280;51941;52.210;5.158;2023-05-20T02:07:20;102461.44;;;10.78;100.00
65329;BME280;51941;52.210;5.158;2023-05-20T02:09:47;102466.94;;;10.76;100.00
65329;BME280;51941;52.210;5.158;2023-05-20T02:12:14;102476.63;;;10.69;100.00
65329;BME280;51941;52.210;5.158;2023-05-20T02:14:43;102476.72;;;10.76;100.00
65329;BME280;51941;52.210;5.158;2023-05-20T02:17:10;102475.06;;;10.75;100.00
65329;BME280;51941;52.210;5.158;2023-05-20T02:19:37;102464.63;;;10.73;100.00
65329;BME280;51941;52.210;5.158;2023-05-20T02:22:05;102472.75;;;10.72;100.00
65329;BME280;51941;52.210;5.158;2023-05-20T02:24:31;102467.03;;;10.68;100.00
65329;BME280;51941;52.210;5.158;2023-05-20T02:26:58;102479.00;;;10.64;100.00
65329;BME280;51941;52.210;5.158;2023-05-20T02:29:26;102477.56;;;10.61;100.00
65329;BME280;51941;52.210;5.158;2023-05-20T02:31:54;102470.06;;;10.65;100.00
65329;BME280;51941;52.210;5.158;2023-05-20T02:34:20;102468.00;;;10.60;100.00
65329;BME280;51941;52.210;5.158;2023-05-20T02:36:47;102474.31;;;10.59;100.00
65329;BME280;51941;52.210;5.158;2023-05-20T02:39:14;102463.06;;;10.57;100.00
65329;BME280;51941;52.210;5.158;2023-05-20T02:41:41;102470.38;;;10.55;100.00
65329;BME280;51941;52.210;5.158;2023-05-20T02:44:08;102462.06;;;10.58;100.00
65329;BME280;51941;52.210;5.158;2023-05-20T02:46:35;102466.91;;;10.55;100.00
65329;BME280;51941;52.210;5.158;2023-05-20T02:49:03;102456.50;;;10.53;100.00
65329;BME280;51941;52.210;5.158;2023-05-20T02:51:29;102461.63;;;10.55;100.00
65329;BME280;51941;52.210;5.158;2023-05-20T02:53:58;102458.78;;;10.56;100.00
65329;BME280;51941;52.210;5.158;2023-05-20T02:56:24;102453.50;;;10.56;100.00
65329;BME280;51941;52.210;5.158;2023-05-20T02:58:53;102460.63;;;10.56;100.00
65329;BME280;51941;52.210;5.158;2023-05-20T03:01:19;102461.63;;;10.55;100.00
65329;BME280;51941;52.210;5.158;2023-05-20T03:03:47;102458.97;;;10.55;100.00
65329;BME280;51941;52.210;5.158;2023-05-20T03:06:15;102456.31;;;10.55;100.00
65329;BME280;51941;52.210;5.158;2023-05-20T03:08:42;102446.94;;;10.52;100.00
65329;BME280;51941;52.210;5.158;2023-05-20T03:11:09;102463.06;;;10.57;100.00
65329;BME280;51941;52.210;5.158;2023-05-20T03:13:36;102457.34;;;10.54;100.00
65329;BME280;51941;52.210;5.158;2023-05-20T03:16:03;102457.16;;;10.55;100.00
65329;BME280;51941;52.210;5.158;2023-05-20T03:18:30;102459.44;;;10.58;100.00
65329;BME280;51941;52.210;5.158;2023-05-20T03:20:58;102455.97;;;10.58;100.00
65329;BME280;51941;52.210;5.158;2023-05-20T03:23:26;102457.19;;;10.62;100.00
65329;BME280;51941;52.210;5.158;2023-05-20T03:25:53;102458.41;;;10.59;100.00
65329;BME280;51941;52.210;5.158;2023-05-20T03:28:20;102464.53;;;10.60;100.00
65329;BME280;51941;52.210;5.158;2023-05-20T03:30:47;102464.13;;;10.63;100.00
65329;BME280;51941;52.210;5.158;2023-05-20T03:33:15;102462.94;;;10.65;100.00
65329;BME280;51941;52.210;5.158;2023-05-20T03:35:42;102469.28;;;10.71;100.00
65329;BME280;51941;52.210;5.158;2023-05-20T03:38:08;102463.38;;;10.69;100.00
65329;BME280;51941;52.210;5.158;2023-05-20T03:40:38;102463.38;;;10.69;100.00
65329;BME280;51941;52.210;5.158;2023-05-20T03:43:05;102456.44;;;10.68;100.00
65329;BME280;51941;52.210;5.158;2023-05-20T03:45:32;102457.50;;;10.74;100.00
65329;BME280;51941;52.210;5.158;2023-05-20T03:48:04;102457.28;;;10.68;100.00
65329;BME280;51941;52.210;5.158;2023-05-20T03:50:33;102457.88;;;10.70;100.00
65329;BME280;51941;52.210;5.158;2023-05-20T03:53:00;102450.16;;;10.69;100.00
65329;BME280;51941;52.210;5.158;2023-05-20T03:55:32;102463.81;;;10.73;100.00
65329;BME280;51941;52.210;5.158;2023-05-20T03:58:01;102459.19;;;10.75;100.00
65329;BME280;51941;52.210;5.158;2023-05-20T04:00:29;102458.50;;;10.73;100.00
65329;BME280;51941;52.210;5.158;2023-05-20T04:02:57;102451.22;;;10.75;100.00
65329;BME280;51941;52.210;5.158;2023-05-20T04:05:23;102444.44;;;10.72;100.00
65329;BME280;51941;52.210;5.158;2023-05-20T04:07:52;102448.75;;;10.73;100.00
65329;BME280;51941;52.210;5.158;2023-05-20T04:10:21;102449.41;;;10.75;100.00
65329;BME280;51941;52.210;5.158;2023-05-20T04:12:49;102449.41;;;10.75;100.00
65329;BME280;51941;52.210;5.158;2023-05-20T04:15:19;102450.38;;;10.74;100.00
65329;BME280;51941;52.210;5.158;2023-05-20T04:17:53;102450.84;;;10.78;100.00
65329;BME280;51941;52.210;5.158;2023-05-20T04:20:20;102458.16;;;10.76;100.00
65329;BME280;51941;52.210;5.158;2023-05-20T04:22:50;102455.56;;;10.82;100.00
65329;BME280;51941;52.210;5.158;2023-05-20T04:25:18;102444.34;;;10.80;100.00
65329;BME280;51941;52.210;5.158;2023-05-20T04:27:45;102456.38;;;10.83;100.00
65329;BME280;51941;52.210;5.158;2023-05-20T04:30:13;102449.47;;;10.88;100.00
65329;BME280;51941;52.210;5.158;2023-05-20T04:32:42;102446.09;;;10.94;100.00
65329;BME280;51941;52.210;5.158;2023-05-20T04:35:09;102454.88;;;11.01;100.00
65329;BME280;51941;52.210;5.158;2023-05-20T04:37:40;102452.88;;;11.03;100.00
65329;BME280;51941;52.210;5.158;2023-05-20T04:40:10;102458.09;;;10.97;100.00
65329;BME280;51941;52.210;5.158;2023-05-20T04:42:38;102454.09;;;11.07;100.00
65329;BME280;51941;52.210;5.158;2023-05-20T04:45:05;102459.03;;;11.11;100.00
65329;BME280;51941;52.210;5.158;2023-05-20T04:47:34;102458.66;;;11.14;100.00
65329;BME280;51941;52.210;5.158;2023-05-20T04:50:06;102466.00;;;11.18;100.00
65329;BME280;51941;52.210;5.158;2023-05-20T04:52:34;102471.13;;;11.20;100.00
65329;BME280;51941;52.210;5.158;2023-05-20T04:55:01;102469.50;;;11.25;100.00
65329;BME280;51941;52.210;5.158;2023-05-20T04:57:28;102464.66;;;11.29;100.00
65329;BME280;51941;52.210;5.158;2023-05-20T04:59:55;102465.31;;;11.37;100.00
65329;BME280;51941;52.210;5.158;2023-05-20T05:02:23;102462.66;;;11.37;100.00
65329;BME280;51941;52.210;5.158;2023-05-20T05:04:52;102459.19;;;11.37;100.00
65329;BME280;51941;52.210;5.158;2023-05-20T05:07:20;102455.94;;;11.41;100.00
65329;BME280;51941;52.210;5.158;2023-05-20T05:09:47;102453.91;;;11.43;100.00
65329;BME280;51941;52.210;5.158;2023-05-20T05:12:14;102453.31;;;11.48;100.00
65329;BME280;51941;52.210;5.158;2023-05-20T05:14:41;102443.31;;;11.50;100.00
65329;BME280;51941;52.210;5.158;2023-05-20T05:17:08;102452.34;;;11.56;100.00
65329;BME280;51941;52.210;5.158;2023-05-20T05:19:35;102455.84;;;11.63;100.00
65329;BME280;51941;52.210;5.158;2023-05-20T05:22:02;102465.25;;;11.72;100.00
65329;BME280;51941;52.210;5.158;2023-05-20T05:24:30;102455.47;;;11.79;100.00
65329;BME280;51941;52.210;5.158;2023-05-20T05:26:57;102452.66;;;11.94;100.00
65329;BME280;51941;52.210;5.158;2023-05-20T05:29:24;102459.66;;;12.08;100.00
65329;BME280;51941;52.210;5.158;2023-05-20T05:31:50;102445.00;;;12.25;100.00
65329;BME280;51941;52.210;5.158;2023-05-20T05:34:17;102446.25;;;12.36;100.00
65329;BME280;51941;52.210;5.158;2023-05-20T05:36:44;102445.84;;;12.52;100.00
65329;BME280;51941;52.210;5.158;2023-05-20T05:39:11;102444.00;;;12.52;100.00
65329;BME280;51941;52.210;5.158;2023-05-20T05:41:40;102439.72;;;12.51;100.00
65329;BME280;51941;52.210;5.158;2023-05-20T05:44:06;102449.72;;;12.56;100.00
65329;BME280;51941;52.210;5.158;2023-05-20T05:46:34;102433.78;;;12.49;100.00
65329;BME280;51941;52.210;5.158;2023-05-20T05:49:00;102435.63;;;12.49;100.00
65329;BME280;51941;52.210;5.158;2023-05-20T05:51:27;102437.88;;;12.59;100.00
65329;BME280;51941;52.210;5.158;2023-05-20T05:53:56;102439.50;;;12.66;100.00
65329;BME280;51941;52.210;5.158;2023-05-20T05:56:23;102433.59;;;12.71;100.00
65329;BME280;51941;52.210;5.158;2023-05-20T05:58:51;102431.31;;;12.81;100.00
65329;BME280;51941;52.210;5.158;2023-05-20T06:01:17;102434.25;;;13.50;100.00
65329;BME280;51941;52.210;5.158;2023-05-20T06:03:44;102442.44;;;14.50;100.00
65329;BME280;51941;52.210;5.158;2023-05-20T06:06:11;102435.09;;;15.31;100.00
65329;BME280;51941;52.210;5.158;2023-05-20T06:08:38;102448.63;;;16.14;98.46
65329;BME280;51941;52.210;5.158;2023-05-20T06:11:06;102428.84;;;16.68;91.92
65329;BME280;51941;52.210;5.158;2023-05-20T06:13:32;102431.63;;;17.20;87.95
65329;BME280;51941;52.210;5.158;2023-05-20T06:16:00;102429.88;;;17.54;82.24
65329;BME280;51941;52.210;5.158;2023-05-20T06:18:27;102441.97;;;17.97;79.37
65329;BME280;51941;52.210;5.158;2023-05-20T06:20:57;102435.41;;;18.38;75.82
65329;BME280;51941;52.210;5.158;2023-05-20T06:23:25;102439.00;;;18.77;72.91
65329;BME280;51941;52.210;5.158;2023-05-20T06:25:56;102432.50;;;19.11;68.08
65329;BME280;51941;52.210;5.158;2023-05-20T06:28:24;102438.13;;;19.32;66.71
65329;BME280;51941;52.210;5.158;2023-05-20T06:30:52;102441.69;;;19.59;65.33
65329;BME280;51941;52.210;5.158;2023-05-20T06:33:22;102435.84;;;19.67;62.31
65329;BME280;51941;52.210;5.158;2023-05-20T06:35:50;102440.06;;;19.85;60.46
65329;BME280;51941;52.210;5.158;2023-05-20T06:38:17;102442.16;;;20.04;57.62
65329;BME280;51941;52.210;5.158;2023-05-20T06:40:45;102440.44;;;19.93;58.73
65329;BME280;51941;52.210;5.158;2023-05-20T06:43:12;102431.81;;;20.50;58.74
65329;BME280;51941;52.210;5.158;2023-05-20T06:45:47;102429.78;;;20.72;54.47
65329;BME280;51941;52.210;5.158;2023-05-20T06:48:27;102431.22;;;20.85;53.32
65329;BME280;51941;52.210;5.158;2023-05-20T06:50:54;102429.34;;;20.86;53.34
65329;BME280;51941;52.210;5.158;2023-05-20T06:53:21;102420.94;;;20.72;52.57
65329;BME280;51941;52.210;5.158;2023-05-20T06:55:48;102424.47;;;20.83;51.00
65329;BME280;51941;52.210;5.158;2023-05-20T06:58:15;102426.81;;;20.69;51.72
65329;BME280;51941;52.210;5.158;2023-05-20T07:00:42;102416.88;;;20.74;51.35
65329;BME280;51941;52.210;5.158;2023-05-20T07:03:09;102426.53;;;20.65;52.66
65329;BME280;51941;52.210;5.158;2023-05-20T07:05:37;102423.63;;;20.72;52.22
65329;BME280;51941;52.210;5.158;2023-05-20T07:08:06;102418.25;;;21.24;50.14
65329;BME280;51941;52.210;5.158;2023-05-20T07:10:32;102418.50;;;20.75;49.63
65329;BME280;51941;52.210;5.158;2023-05-20T07:12:59;102421.16;;;21.07;50.24
65329;BME280;51941;52.210;5.158;2023-05-20T07:15:26;102418.28;;;21.34;48.60
65329;BME280;51941;52.210;5.158;2023-05-20T07:17:53;102414.25;;;21.37;47.23
65329;BME280;51941;52.210;5.158;2023-05-20T07:20:20;102414.97;;;21.12;48.78
65329;BME280;51941;52.210;5.158;2023-05-20T07:22:47;102412.91;;;21.39;48.28
65329;BME280;51941;52.210;5.158;2023-05-20T07:25:28;102408.59;;;21.38;47.71
65329;BME280;51941;52.210;5.158;2023-05-20T07:27:55;102412.69;;;21.51;47.50
65329;BME280;51941;52.210;5.158;2023-05-20T07:30:22;102407.91;;;21.88;46.65
65329;BME280;51941;52.210;5.158;2023-05-20T07:33:08;102406.03;;;22.14;46.22
65329;BME280;51941;52.210;5.158;2023-05-20T07:35:36;102412.50;;;22.13;45.75
65329;BME280;51941;52.210;5.158;2023-05-20T07:38:04;102404.94;;;22.46;45.16
65329;BME280;51941;52.210;5.158;2023-05-20T07:40:31;102404.09;;;22.71;44.08
65329;BME280;51941;52.210;5.158;2023-05-20T07:42:57;102406.31;;;22.53;43.94
65329;BME280;51941;52.210;5.158;2023-05-20T07:45:24;102396.78;;;22.81;43.25
65329;BME280;51941;52.210;5.158;2023-05-20T07:47:51;102394.34;;;22.85;42.98
65329;BME280;51941;52.210;5.158;2023-05-20T07:50:18;102391.66;;;22.80;42.08
65329;BME280;51941;52.210;5.158;2023-05-20T07:52:45;102391.16;;;22.68;42.36
65329;BME280;51941;52.210;5.158;2023-05-20T07:55:13;102397.91;;;22.40;42.61
65329;BME280;51941;52.210;5.158;2023-05-20T07:57:40;102396.84;;;22.46;42.40
65329;BME280;51941;52.210;5.158;2023-05-20T08:00:08;102389.31;;;22.22;42.48
65329;BME280;51941;52.210;5.158;2023-05-20T08:02:42;102392.00;;;22.22;42.87
65329;BME280;51941;52.210;5.158;2023-05-20T08:05:12;102388.78;;;22.15;42.97
65329;BME280;51941;52.210;5.158;2023-05-20T08:07:39;102386.88;;;21.96;42.54
65329;BME280;51941;52.210;5.158;2023-05-20T08:10:08;102375.47;;;21.38;43.90
65329;BME280;51941;52.210;5.158;2023-05-20T08:12:37;102374.47;;;21.79;44.16
65329;BME280;51941;52.210;5.158;2023-05-20T08:15:05;102382.03;;;21.98;43.38
65329;BME280;51941;52.210;5.158;2023-05-20T08:17:32;102382.56;;;21.74;43.42
65329;BME280;51941;52.210;5.158;2023-05-20T08:19:59;102382.84;;;22.39;42.10
65329;BME280;51941;52.210;5.158;2023-05-20T08:22:26;102379.84;;;22.35;42.02
65329;BME280;51941;52.210;5.158;2023-05-20T08:24:52;102384.50;;;22.04;42.67
65329;BME280;51941;52.210;5.158;2023-05-20T08:27:19;102379.03;;;22.50;42.21
65329;BME280;51941;52.210;5.158;2023-05-20T08:29:47;102375.53;;;22.44;41.70
65329;BME280;51941;52.210;5.158;2023-05-20T08:32:14;102368.53;;;22.33;41.92
65329;BME280;51941;52.210;5.158;2023-05-20T08:34:40;102372.59;;;22.05;41.49
65329;BME280;51941;52.210;5.158;2023-05-20T08:37:08;102367.56;;;21.11;42.82
65329;BME280;51941;52.210;5.158;2023-05-20T08:39:34;102370.88;;;20.76;43.46
65329;BME280;51941;52.210;5.158;2023-05-20T08:42:02;102366.09;;;20.36;44.58
65329;BME280;51941;52.210;5.158;2023-05-20T08:44:32;102363.59;;;19.97;45.02
65329;BME280;51941;52.210;5.158;2023-05-20T08:47:01;102364.75;;;19.75;45.43
65329;BME280;51941;52.210;5.158;2023-05-20T08:49:30;102349.28;;;19.60;46.15
65329;BME280;51941;52.210;5.158;2023-05-20T08:51:59;102354.47;;;19.40;47.38
65329;BME280;51941;52.210;5.158;2023-05-20T08:54:32;102365.50;;;19.43;46.93
65329;BME280;51941;52.210;5.158;2023-05-20T08:57:06;102349.78;;;19.08;47.06
65329;BME280;51941;52.210;5.158;2023-05-20T08:59:33;102350.53;;;18.82;48.50
65329;BME280;51941;52.210;5.158;2023-05-20T09:02:02;102331.19;;;18.80;48.79
65329;BME280;51941;52.210;5.158;2023-05-20T09:04:28;102333.81;;;18.75;48.09
65329;BME280;51941;52.210;5.158;2023-05-20T09:06:55;102338.03;;;18.71;47.88
65329;BME280;51941;52.210;5.158;2023-05-20T09:09:22;102338.03;;;18.71;47.48
65329;BME280;51941;52.210;5.158;2023-05-20T09:11:48;102337.41;;;18.64;47.62
65329;BME280;51941;52.210;5.158;2023-05-20T09:14:15;102333.50;;;18.71;47.74
65329;BME280;51941;52.210;5.158;2023-05-20T09:16:42;102337.63;;;18.79;47.56
65329;BME280;51941;52.210;5.158;2023-05-20T09:19:10;102336.06;;;18.83;47.81
65329;BME280;51941;52.210;5.158;2023-05-20T09:21:37;102331.56;;;18.88;45.89
65329;BME280;51941;52.210;5.158;2023-05-20T09:24:05;102329.25;;;18.75;45.41
65329;BME280;51941;52.210;5.158;2023-05-20T09:26:32;102315.22;;;18.68;45.47
65329;BME280;51941;52.210;5.158;2023-05-20T09:28:59;102322.28;;;18.74;46.87
65329;BME280;51941;52.210;5.158;2023-05-20T09:31:26;102312.50;;;18.85;46.66
65329;BME280;51941;52.210;5.158;2023-05-20T09:33:53;102322.56;;;19.00;45.99
65329;BME280;51941;52.210;5.158;2023-05-20T09:36:22;102313.03;;;19.09;45.10
65329;BME280;51941;52.210;5.158;2023-05-20T09:38:53;102313.13;;;19.19;45.12
65329;BME280;51941;52.210;5.158;2023-05-20T09:41:28;102301.53;;;19.35;43.79
65329;BME280;51941;52.210;5.158;2023-05-20T09:43:58;102296.72;;;19.37;43.36
65329;BME280;51941;52.210;5.158;2023-05-20T09:46:26;102308.53;;;19.36;43.92
65329;BME280;51941;52.210;5.158;2023-05-20T09:48:53;102303.16;;;19.36;43.72
65329;BME280;51941;52.210;5.158;2023-05-20T09:51:22;102288.53;;;19.27;42.81
65329;BME280;51941;52.210;5.158;2023-05-20T09:53:49;102304.03;;;19.20;42.59
65329;BME280;51941;52.210;5.158;2023-05-20T09:56:19;102303.94;;;19.15;42.58
65329;BME280;51941;52.210;5.158;2023-05-20T09:58:48;102295.63;;;19.11;43.08
65329;BME280;51941;52.210;5.158;2023-05-20T10:01:15;102300.16;;;19.11;43.84
65329;BME280;51941;52.210;5.158;2023-05-20T10:03:43;102302.66;;;19.17;43.29
65329;BME280;51941;52.210;5.158;2023-05-20T10:06:36;102299.50;;;19.25;42.79
65329;BME280;51941;52.210;5.158;2023-05-20T10:09:20;102298.38;;;19.43;42.42
65329;BME280;51941;52.210;5.158;2023-05-20T10:11:55;102283.88;;;19.44;41.89
65329;BME280;51941;52.210;5.158;2023-05-20T10:14:35;102290.38;;;19.48;42.46
65329;BME280;51941;52.210;5.158;2023-05-20T10:17:08;102281.75;;;19.46;43.29
65329;BME280;51941;52.210;5.158;2023-05-20T10:19:36;102287.97;;;19.52;42.17
65329;BME280;51941;52.210;5.158;2023-05-20T10:22:05;102267.38;;;19.57;42.72
65329;BME280;51941;52.210;5.158;2023-05-20T10:24:34;102267.38;;;19.57;43.00
65329;BME280;51941;52.210;5.158;2023-05-20T10:27:02;102281.84;;;19.29;42.70
65329;BME280;51941;52.210;5.158;2023-05-20T10:29:40;102264.63;;;19.25;42.92
65329;BME280;51941;52.210;5.158;2023-05-20T10:32:07;102256.09;;;19.34;43.17
65329;BME280;51941;52.210;5.158;2023-05-20T10:34:44;102258.97;;;19.49;42.25
65329;BME280;51941;52.210;5.158;2023-05-20T10:37:22;102258.22;;;19.58;41.50
65329;BME280;51941;52.210;5.158;2023-05-20T10:39:49;102243.13;;;19.52;41.36
65329;BME280;51941;52.210;5.158;2023-05-20T10:42:26;102250.03;;;19.43;41.61
65329;BME280;51941;52.210;5.158;2023-05-20T10:44:53;102246.84;;;19.46;41.97
65329;BME280;51941;52.210;5.158;2023-05-20T10:47:20;102248.28;;;19.59;41.78
65329;BME280;51941;52.210;5.158;2023-05-20T10:49:47;102242.88;;;19.54;41.30
65329;BME280;51941;52.210;5.158;2023-05-20T10:52:15;102226.41;;;19.40;41.98
65329;BME280;51941;52.210;5.158;2023-05-20T10:54:45;102245.97;;;19.41;41.72
65329;BME280;51941;52.210;5.158;2023-05-20T10:57:12;102228.81;;;19.42;41.88
65329;BME280;51941;52.210;5.158;2023-05-20T10:59:40;102230.00;;;19.56;42.27
65329;BME280;51941;52.210;5.158;2023-05-20T11:02:08;102227.91;;;19.63;41.96
65329;BME280;51941;52.210;5.158;2023-05-20T11:04:37;102228.03;;;19.78;42.39
65329;BME280;51941;52.210;5.158;2023-05-20T11:07:05;102226.03;;;20.00;41.49
65329;BME280;51941;52.210;5.158;2023-05-20T11:09:32;102223.34;;;20.00;41.16
65329;BME280;51941;52.210;5.158;2023-05-20T11:12:00;102221.88;;;19.83;41.19
65329;BME280;51941;52.210;5.158;2023-05-20T11:14:28;102222.38;;;19.75;41.57
65329;BME280;51941;52.210;5.158;2023-05-20T11:16:55;102218.91;;;19.79;41.54
65329;BME280;51941;52.210;5.158;2023-05-20T11:19:22;102216.53;;;19.88;40.89
65329;BME280;51941;52.210;5.158;2023-05-20T11:21:49;102221.16;;;19.97;40.97
65329;BME280;51941;52.210;5.158;2023-05-20T11:24:22;102216.84;;;19.96;40.84
65329;BME280;51941;52.210;5.158;2023-05-20T11:26:50;102214.47;;;20.05;40.61
65329;BME280;51941;52.210;5.158;2023-05-20T11:29:19;102218.16;;;19.94;40.64
65329;BME280;51941;52.210;5.158;2023-05-20T11:31:47;102218.97;;;19.89;41.26
65329;BME280;51941;52.210;5.158;2023-05-20T11:34:15;102209.91;;;20.00;40.92
65329;BME280;51941;52.210;5.158;2023-05-20T11:36:41;102210.22;;;20.09;40.71
65329;BME280;51941;52.210;5.158;2023-05-20T11:39:09;102197.94;;;20.23;40.86
65329;BME280;51941;52.210;5.158;2023-05-20T11:41:36;102210.13;;;20.41;40.53
65329;BME280;51941;52.210;5.158;2023-05-20T11:44:03;102209.84;;;20.43;40.58
65329;BME280;51941;52.210;5.158;2023-05-20T11:46:40;102202.06;;;20.41;40.15
65329;BME280;51941;52.210;5.158;2023-05-20T11:49:06;102200.63;;;20.23;40.81
65329;BME280;51941;52.210;5.158;2023-05-20T11:51:33;102198.13;;;20.12;40.94
65329;BME280;51941;52.210;5.158;2023-05-20T11:54:00;102192.66;;;19.91;41.49
65329;BME280;51941;52.210;5.158;2023-05-20T11:56:27;102203.31;;;20.18;41.27
65329;BME280;51941;52.210;5.158;2023-05-20T11:58:56;102188.03;;;20.34;40.92
65329;BME280;51941;52.210;5.158;2023-05-20T12:01:22;102188.91;;;20.45;40.55
65329;BME280;51941;52.210;5.158;2023-05-20T12:03:53;102178.06;;;20.29;40.84
65329;BME280;51941;52.210;5.158;2023-05-20T12:06:20;102179.66;;;20.25;41.30
65329;BME280;51941;52.210;5.158;2023-05-20T12:08:47;102184.84;;;20.47;40.68
65329;BME280;51941;52.210;5.158;2023-05-20T12:11:14;102174.94;;;20.53;40.78
65329;BME280;51941;52.210;5.158;2023-05-20T12:13:40;102174.34;;;20.35;41.32
65329;BME280;51941;52.210;5.158;2023-05-20T12:16:07;102175.97;;;20.36;41.46
65329;BME280;51941;52.210;5.158;2023-05-20T12:18:34;102169.00;;;20.46;41.63
65329;BME280;51941;52.210;5.158;2023-05-20T12:21:02;102168.72;;;20.47;41.09
65329;BME280;51941;52.210;5.158;2023-05-20T12:23:28;102170.28;;;20.38;41.22
65329;BME280;51941;52.210;5.158;2023-05-20T12:25:58;102166.03;;;20.47;41.40
65329;BME280;51941;52.210;5.158;2023-05-20T12:28:25;102171.72;;;20.61;40.88
65329;BME280;51941;52.210;5.158;2023-05-20T12:30:52;102173.06;;;20.53;40.46
65329;BME280;51941;52.210;5.158;2023-05-20T12:33:18;102175.38;;;20.24;40.86
65329;BME280;51941;52.210;5.158;2023-05-20T12:35:46;102154.16;;;20.28;41.29
65329;BME280;51941;52.210;5.158;2023-05-20T12:38:17;102160.63;;;20.37;41.20
65329;BME280;51941;52.210;5.158;2023-05-20T12:40:44;102158.25;;;20.46;40.88
65329;BME280;51941;52.210;5.158;2023-05-20T12:43:11;102159.59;;;20.53;40.79
65329;BME280;51941;52.210;5.158;2023-05-20T12:45:37;102155.28;;;20.57;41.00
65329;BME280;51941;52.210;5.158;2023-05-20T12:48:04;102148.31;;;20.61;40.80
65329;BME280;51941;52.210;5.158;2023-05-20T12:50:32;102157.22;;;20.77;40.87